createdAt,value
2022-12-01T00:01:07.206Z,94150.31
2022-12-01T00:03:34.046Z,94151.31
2022-12-01T00:06:04.194Z,94149.78
2022-12-01T00:08:31.932Z,94148.75
2022-12-01T00:11:06.997Z,94146.84
2022-12-01T00:13:34.382Z,94145.16
2022-12-01T00:16:15.325Z,94145.34
2022-12-01T00:18:42.435Z,94141.25
2022-12-01T00:21:16.774Z,94148.16
2022-12-01T00:23:48.018Z,94143.50
2022-12-01T00:26:16.128Z,94142.47
2022-12-01T00:28:43.134Z,94142.41
2022-12-01T00:31:11.120Z,94140.91
2022-12-01T00:33:38.202Z,94143.19
2022-12-01T00:36:06.288Z,94145.97
2022-12-01T00:38:33.848Z,94141.34
2022-12-01T00:41:00.608Z,94142.75
2022-12-01T00:43:27.228Z,94148.84
2022-12-01T00:45:55.023Z,94146.13
2022-12-01T00:48:21.885Z,94149.78
2022-12-01T00:50:51.170Z,94159.09
2022-12-01T00:53:18.085Z,94154.03
2022-12-01T00:55:44.850Z,94153.84
2022-12-01T00:58:11.465Z,94157.41
2022-12-01T01:00:38.682Z,94161.84
2022-12-01T01:03:07.054Z,94155.22
2022-12-01T01:05:40.188Z,94163.03
2022-12-01T01:08:09.079Z,94160.19
2022-12-01T01:10:39.989Z,94167.28
2022-12-01T01:13:06.726Z,94158.50
2022-12-01T01:15:33.696Z,94160.16
2022-12-01T01:18:00.498Z,94157.19
2022-12-01T01:20:27.096Z,94155.66
2022-12-01T01:22:53.740Z,94152.53
2022-12-01T01:25:20.352Z,94149.88
2022-12-01T01:27:47.023Z,94143.66
2022-12-01T01:30:14.058Z,94158.38
2022-12-01T01:32:40.695Z,94149.03
2022-12-01T01:35:08.235Z,94157.97
2022-12-01T01:37:34.955Z,94156.19
2022-12-01T01:40:01.657Z,94155.34
2022-12-01T01:42:28.410Z,94156.94
2022-12-01T01:44:59.095Z,94155.19
2022-12-01T01:47:26.607Z,94150.78
2022-12-01T01:49:56.353Z,94155.25
2022-12-01T01:52:23.741Z,94153.63
2022-12-01T01:54:53.517Z,94154.56
2022-12-01T01:57:26.794Z,94147.31
2022-12-01T01:59:58.120Z,94145.19
2022-12-01T02:02:25.650Z,94147.47
2022-12-01T02:04:57.303Z,94153.41
2022-12-01T02:07:24.114Z,94151.66
2022-12-01T02:09:51.185Z,94155.34
2022-12-01T02:12:42.125Z,94150.28
2022-12-01T02:15:46.674Z,94150.84
2022-12-01T02:18:32.719Z,94150.16
2022-12-01T02:21:17.430Z,94143.75
2022-12-01T02:23:49.728Z,94147.31
2022-12-01T02:26:34.276Z,94154.94
2022-12-01T02:29:30.092Z,94146.03
2022-12-01T02:32:21.844Z,94144.38
2022-12-01T02:35:14.567Z,94150.88
2022-12-01T02:37:51.110Z,94144.44
2022-12-01T02:40:20.945Z,94135.81
2022-12-01T02:42:50.574Z,94139.97
2022-12-01T02:45:40.992Z,94147.84
2022-12-01T02:48:23.998Z,94141.19
2022-12-01T02:50:52.619Z,94147.75
2022-12-01T02:53:19.836Z,94146.91
2022-12-01T02:55:48.716Z,94145.72
2022-12-01T02:58:15.971Z,94151.50
2022-12-01T03:01:11.622Z,94146.47
2022-12-01T03:04:21.603Z,94149.72
2022-12-01T03:06:56.040Z,94147.16
2022-12-01T03:09:31.611Z,94144.81
2022-12-01T03:12:05.739Z,94144.47
2022-12-01T03:15:21.627Z,94151.47
2022-12-01T03:18:23.625Z,94145.88
2022-12-01T03:21:06.544Z,94136.13
2022-12-01T03:23:39.654Z,94141.88
2022-12-01T03:26:09.538Z,94141.97
2022-12-01T03:28:46.152Z,94140.88
2022-12-01T03:31:17.786Z,94138.41
2022-12-01T03:33:52.239Z,94134.91
2022-12-01T03:36:35.555Z,94141.06
2022-12-01T03:39:06.851Z,94140.69
2022-12-01T03:41:48.947Z,94138.22
2022-12-01T03:44:29.598Z,94135.34
2022-12-01T03:47:09.846Z,94141.94
2022-12-01T03:49:37.687Z,94135.53
2022-12-01T03:52:22.816Z,94139.38
2022-12-01T03:55:08.407Z,94143.31
2022-12-01T03:57:48.366Z,94144.31
2022-12-01T04:00:15.776Z,94149.00
2022-12-01T04:02:42.818Z,94148.41
2022-12-01T04:05:09.550Z,94144.44
2022-12-01T04:07:39.599Z,94146.59
2022-12-01T04:10:07.012Z,94137.94
2022-12-01T04:12:33.727Z,94141.56
2022-12-01T04:15:07.992Z,94150.78
2022-12-01T04:17:34.960Z,94148.34
2022-12-01T04:20:01.912Z,94141.13
2022-12-01T04:22:28.619Z,94149.94
2022-12-01T04:24:55.337Z,94147.34
2022-12-01T04:27:22.093Z,94141.50
2022-12-01T04:29:49.043Z,94139.09
2022-12-01T04:32:16.589Z,94136.81
2022-12-01T04:34:43.255Z,94147.25
2022-12-01T04:37:10.167Z,94148.31
2022-12-01T04:39:36.802Z,94140.53
2022-12-01T04:42:04.211Z,94146.72
2022-12-01T04:44:34.808Z,94144.41
2022-12-01T04:47:03.550Z,94142.03
2022-12-01T04:49:30.459Z,94141.66
2022-12-01T04:51:57.147Z,94147.88
2022-12-01T04:54:24.024Z,94152.50
2022-12-01T04:56:50.814Z,94149.22
2022-12-01T04:59:17.626Z,94148.50
2022-12-01T05:01:44.775Z,94152.41
2022-12-01T05:04:13.397Z,94143.22
2022-12-01T05:06:40.376Z,94147.78
2022-12-01T05:09:07.595Z,94147.69
2022-12-01T05:11:34.375Z,94153.34
2022-12-01T05:14:01.243Z,94147.88
2022-12-01T05:16:31.916Z,94150.13
2022-12-01T05:19:20.149Z,94151.31
2022-12-01T05:21:49.078Z,94151.56
2022-12-01T05:24:17.392Z,94152.13
2022-12-01T05:26:45.155Z,94159.34
2022-12-01T05:29:12.764Z,94157.19
2022-12-01T05:31:39.957Z,94161.34
2022-12-01T05:34:07.994Z,94151.81
2022-12-01T05:36:34.719Z,94160.03
2022-12-01T05:39:01.442Z,94160.81
2022-12-01T05:41:28.314Z,94158.56
2022-12-01T05:43:55.084Z,94157.91
2022-12-01T05:46:21.810Z,94153.50
2022-12-01T05:48:48.517Z,94154.16
2022-12-01T05:51:16.988Z,94154.06
2022-12-01T05:53:44.279Z,94162.69
2022-12-01T05:56:11.004Z,94160.69
2022-12-01T05:58:37.684Z,94155.97
2022-12-01T06:01:04.486Z,94157.53
2022-12-01T06:03:31.199Z,94161.72
2022-12-01T06:05:57.847Z,94164.19
2022-12-01T06:08:24.723Z,94173.31
2022-12-01T06:10:51.397Z,94168.47
2022-12-01T06:13:18.087Z,94170.06
2022-12-01T06:15:44.668Z,94170.03
2022-12-01T06:18:11.337Z,94160.69
2022-12-01T06:20:38.033Z,94169.25
2022-12-01T06:23:04.823Z,94167.34
2022-12-01T06:25:31.479Z,94173.63
2022-12-01T06:27:58.918Z,94165.22
2022-12-01T06:30:25.957Z,94165.84
2022-12-01T06:32:52.628Z,94169.34
2022-12-01T06:35:19.522Z,94172.94
2022-12-01T06:37:46.264Z,94170.63
2022-12-01T06:40:13.239Z,94173.19
2022-12-01T06:42:39.867Z,94172.06
2022-12-01T06:45:07.137Z,94177.31
2022-12-01T06:47:33.871Z,94172.50
2022-12-01T06:50:00.780Z,94177.00
2022-12-01T06:52:27.437Z,94178.91
2022-12-01T06:54:54.099Z,94181.06
2022-12-01T06:57:21.070Z,94186.00
2022-12-01T06:59:48.160Z,94184.53
2022-12-01T07:02:16.828Z,94186.84
2022-12-01T07:04:43.595Z,94179.88
2022-12-01T07:07:12.045Z,94181.50
2022-12-01T07:09:39.432Z,94182.66
2022-12-01T07:12:06.644Z,94188.91
2022-12-01T07:14:33.656Z,94187.19
2022-12-01T07:17:00.336Z,94187.00
2022-12-01T07:19:27.267Z,94194.94
2022-12-01T07:21:53.970Z,94198.81
2022-12-01T07:24:20.616Z,94201.84
2022-12-01T07:26:48.158Z,94202.50
2022-12-01T07:29:14.921Z,94205.97
2022-12-01T07:31:41.618Z,94202.78
2022-12-01T07:34:12.086Z,94202.06
2022-12-01T07:36:39.153Z,94196.50
2022-12-01T07:39:07.606Z,94206.69
2022-12-01T07:41:35.580Z,94209.44
2022-12-01T07:44:02.923Z,94212.25
2022-12-01T07:46:29.653Z,94208.22
2022-12-01T07:48:57.074Z,94216.31
2022-12-01T07:51:25.675Z,94212.53
2022-12-01T07:53:54.331Z,94212.53
2022-12-01T07:56:22.152Z,94215.81
2022-12-01T07:58:49.155Z,94208.84
2022-12-01T08:01:21.804Z,94214.91
2022-12-01T08:03:50.313Z,94211.97
2022-12-01T08:06:17.846Z,94210.44
2022-12-01T08:08:44.907Z,94216.34
2022-12-01T08:11:14.475Z,94210.66
2022-12-01T08:13:41.941Z,94212.25
2022-12-01T08:16:10.526Z,94214.25
2022-12-01T08:18:38.959Z,94214.75
2022-12-01T08:21:07.198Z,94214.06
2022-12-01T08:23:34.424Z,94210.00
2022-12-01T08:26:07.153Z,94212.81
2022-12-01T08:28:36.330Z,94222.03
2022-12-01T08:31:09.145Z,94214.41
2022-12-01T08:33:35.964Z,94213.59
2022-12-01T08:36:03.595Z,94221.06
2022-12-01T08:38:30.419Z,94210.94
2022-12-01T08:41:05.164Z,94213.63
2022-12-01T08:43:56.603Z,94221.06
2022-12-01T08:46:18.490Z,94220.56
2022-12-01T08:48:45.356Z,94224.47
2022-12-01T08:51:15.697Z,94218.28
2022-12-01T08:53:45.806Z,94223.94
2022-12-01T08:56:15.613Z,94223.78
2022-12-01T08:58:42.670Z,94221.25
2022-12-01T09:01:12.380Z,94225.09
2022-12-01T09:03:40.222Z,94223.59
2022-12-01T09:06:12.111Z,94228.47
2022-12-01T09:08:39.099Z,94227.69
2022-12-01T09:11:08.540Z,94229.28
2022-12-01T09:13:36.415Z,94237.66
2022-12-01T09:16:06.003Z,94235.59
2022-12-01T09:18:33.425Z,94232.84
2022-12-01T09:21:00.957Z,94231.06
2022-12-01T09:23:27.712Z,94235.22
2022-12-01T09:25:54.311Z,94229.91
2022-12-01T09:28:21.077Z,94231.69
2022-12-01T09:30:47.880Z,94238.75
2022-12-01T09:33:14.604Z,94237.53
2022-12-01T09:35:41.333Z,94234.00
2022-12-01T09:38:07.994Z,94245.50
2022-12-01T09:40:38.316Z,94240.19
2022-12-01T09:43:12.894Z,94235.22
2022-12-01T09:45:45.261Z,94231.59
2022-12-01T09:48:25.603Z,94235.91
2022-12-01T09:50:53.012Z,94234.53
2022-12-01T09:53:23.810Z,94234.53
2022-12-01T09:55:50.832Z,94229.47
2022-12-01T09:58:25.755Z,94223.31
2022-12-01T10:00:54.194Z,94219.16
2022-12-01T10:03:50.542Z,94211.72
2022-12-01T10:06:34.063Z,94207.16
2022-12-01T10:09:39.143Z,94204.63
2022-12-01T10:12:18.005Z,94195.63
2022-12-01T10:14:46.579Z,94201.41
2022-12-01T10:17:39.507Z,94200.44
2022-12-01T10:20:24.450Z,94193.91
2022-12-01T10:23:33.302Z,94203.44
2022-12-01T10:26:09.933Z,94194.88
2022-12-01T10:28:36.506Z,94192.84
2022-12-01T10:31:34.626Z,94197.91
2022-12-01T10:34:06.300Z,94192.69
2022-12-01T10:36:34.661Z,94190.44
2022-12-01T10:39:04.808Z,94196.72
2022-12-01T10:41:36.134Z,94197.91
2022-12-01T10:44:05.749Z,94186.91
2022-12-01T10:46:43.393Z,94190.56
2022-12-01T10:49:15.295Z,94184.47
2022-12-01T10:51:57.434Z,94180.28
2022-12-01T10:54:33.103Z,94180.16
2022-12-01T10:57:00.832Z,94176.00
2022-12-01T11:00:25.489Z,94169.44
2022-12-01T11:02:59.667Z,94177.94
2022-12-01T11:05:39.073Z,94179.22
2022-12-01T11:08:06.075Z,94172.41
2022-12-01T11:10:33.887Z,94168.94
2022-12-01T11:13:23.951Z,94172.19
2022-12-01T11:15:53.315Z,94177.00
2022-12-01T11:18:24.454Z,94167.78
2022-12-01T11:21:27.790Z,94173.13
2022-12-01T11:23:56.216Z,94173.19
2022-12-01T11:26:32.353Z,94177.84
2022-12-01T11:29:02.588Z,94178.63
2022-12-01T11:31:55.755Z,94168.56
2022-12-01T11:34:34.268Z,94163.59
2022-12-01T11:37:04.421Z,94159.72
2022-12-01T11:39:39.407Z,94154.13
2022-12-01T11:42:12.259Z,94153.66
2022-12-01T11:44:51.359Z,94149.94
2022-12-01T11:47:25.119Z,94151.38
2022-12-01T11:50:00.003Z,94154.44
2022-12-01T11:52:30.845Z,94149.25
2022-12-01T11:55:08.449Z,94147.38
2022-12-01T11:57:39.049Z,94149.94
2022-12-01T12:00:16.345Z,94146.84
2022-12-01T12:02:57.952Z,94147.13
2022-12-01T12:05:33.439Z,94144.25
2022-12-01T12:08:34.991Z,94151.16
2022-12-01T12:11:43.281Z,94145.47
2022-12-01T12:14:21.973Z,94140.00
2022-12-01T12:17:12.672Z,94139.84
2022-12-01T12:20:08.505Z,94141.81
2022-12-01T12:23:01.289Z,94140.47
2022-12-01T12:25:52.070Z,94137.44
2022-12-01T12:28:34.454Z,94138.84
2022-12-01T12:31:29.629Z,94142.06
2022-12-01T12:34:22.899Z,94141.97
2022-12-01T12:37:01.301Z,94139.63
2022-12-01T12:39:59.210Z,94131.59
2022-12-01T12:43:04.407Z,94126.25
2022-12-01T12:45:49.543Z,94126.94
2022-12-01T12:48:38.627Z,94123.75
2022-12-01T12:51:21.099Z,94125.88
2022-12-01T12:53:59.865Z,94126.81
2022-12-01T12:56:30.510Z,94121.34
2022-12-01T12:59:01.324Z,94119.06
2022-12-01T13:01:38.460Z,94124.22
2022-12-01T13:04:13.578Z,94122.34
2022-12-01T13:06:50.056Z,94115.66
2022-12-01T13:09:19.433Z,94117.59
2022-12-01T13:11:52.012Z,94112.25
2022-12-01T13:14:27.903Z,94116.28
2022-12-01T13:17:01.577Z,94112.69
2022-12-01T13:19:37.170Z,94112.69
2022-12-01T13:22:05.868Z,94113.56
2022-12-01T13:24:32.856Z,94119.88
2022-12-01T13:27:14.114Z,94117.19
2022-12-01T13:29:50.094Z,94116.03
2022-12-01T13:32:36.820Z,94110.78
2022-12-01T13:35:17.554Z,94107.63
2022-12-01T13:37:44.221Z,94107.91
2022-12-01T13:40:21.836Z,94112.41
2022-12-01T13:43:07.053Z,94101.56
2022-12-01T13:45:40.019Z,94117.63
2022-12-01T13:48:26.447Z,94114.59
2022-12-01T13:50:52.989Z,94112.31
2022-12-01T13:53:19.580Z,94111.13
2022-12-01T13:56:24.303Z,94111.47
2022-12-01T13:58:53.822Z,94110.69
2022-12-01T14:01:20.879Z,94109.19
2022-12-01T14:03:56.986Z,94111.41
2022-12-01T14:06:36.084Z,94109.59
2022-12-01T14:09:16.643Z,94114.09
2022-12-01T14:12:05.761Z,94115.75
2022-12-01T14:14:38.956Z,94116.06
2022-12-01T14:17:06.380Z,94114.56
2022-12-01T14:19:52.055Z,94122.72
2022-12-01T14:22:39.180Z,94121.03
2022-12-01T14:25:29.137Z,94126.28
2022-12-01T14:28:04.418Z,94121.25
2022-12-01T14:30:46.172Z,94121.53
2022-12-01T14:33:57.804Z,94125.81
2022-12-01T14:36:24.421Z,94120.41
2022-12-01T14:38:54.608Z,94118.31
2022-12-01T14:41:46.091Z,94123.59
2022-12-01T14:44:36.314Z,94125.66
2022-12-01T14:47:11.777Z,94115.97
2022-12-01T14:49:42.058Z,94114.81
2022-12-01T14:52:29.700Z,94120.09
2022-12-01T14:54:59.366Z,94127.44
2022-12-01T14:57:32.575Z,94128.19
2022-12-01T15:00:10.936Z,94139.38
2022-12-01T15:02:48.594Z,94136.78
2022-12-01T15:05:20.586Z,94135.28
2022-12-01T15:07:50.215Z,94134.63
2022-12-01T15:10:35.343Z,94145.81
2022-12-01T15:13:30.756Z,94140.69
2022-12-01T15:15:58.811Z,94135.59
2022-12-01T15:18:33.818Z,94141.72
2022-12-01T15:21:12.141Z,94143.72
2022-12-01T15:23:54.120Z,94140.06
2022-12-01T15:26:23.924Z,94143.53
2022-12-01T15:29:03.220Z,94129.19
2022-12-01T15:31:30.015Z,94133.97
2022-12-01T15:33:56.948Z,94132.56
2022-12-01T15:36:24.027Z,94126.19
2022-12-01T15:38:50.830Z,94135.94
2022-12-01T15:41:29.491Z,94141.66
2022-12-01T15:43:58.905Z,94138.75
2022-12-01T15:46:31.636Z,94136.78
2022-12-01T15:49:09.390Z,94136.19
2022-12-01T15:51:36.295Z,94143.19
2022-12-01T15:54:03.637Z,94141.50
2022-12-01T15:56:37.987Z,94140.16
2022-12-01T15:59:13.559Z,94139.84
2022-12-01T16:01:44.317Z,94141.81
2022-12-01T16:04:26.287Z,94140.06
2022-12-01T16:07:03.288Z,94131.63
2022-12-01T16:09:35.771Z,94126.56
2022-12-01T16:12:04.477Z,94135.94
2022-12-01T16:14:32.316Z,94138.31
2022-12-01T16:17:00.099Z,94140.91
2022-12-01T16:19:32.424Z,94139.22
2022-12-01T16:22:11.539Z,94141.44
2022-12-01T16:24:46.656Z,94134.53
2022-12-01T16:27:23.674Z,94139.06
2022-12-01T16:30:00.841Z,94139.75
2022-12-01T16:32:35.568Z,94141.00
2022-12-01T16:35:04.265Z,94142.44
2022-12-01T16:37:31.432Z,94140.91
2022-12-01T16:39:58.749Z,94148.16
2022-12-01T16:42:25.399Z,94147.19
2022-12-01T16:44:52.797Z,94144.09
2022-12-01T16:47:24.547Z,94148.13
2022-12-01T16:49:52.378Z,94145.91
2022-12-01T16:52:43.692Z,94144.59
2022-12-01T16:55:24.046Z,94149.47
2022-12-01T16:57:50.693Z,94151.72
2022-12-01T17:00:17.610Z,94145.88
2022-12-01T17:02:44.373Z,94148.59
2022-12-01T17:05:11.737Z,94153.16
2022-12-01T17:07:38.445Z,94147.91
2022-12-01T17:10:06.670Z,94143.53
2022-12-01T17:12:33.333Z,94147.84
2022-12-01T17:14:59.954Z,94144.34
2022-12-01T17:17:29.363Z,94137.19
2022-12-01T17:19:56.179Z,94143.22
2022-12-01T17:22:23.067Z,94145.16
2022-12-01T17:24:50.220Z,94145.97
2022-12-01T17:27:17.179Z,94144.28
2022-12-01T17:29:46.254Z,94141.59
2022-12-01T17:32:14.207Z,94148.91
2022-12-01T17:34:41.155Z,94144.09
2022-12-01T17:37:10.115Z,94141.47
2022-12-01T17:39:36.811Z,94147.59
2022-12-01T17:42:03.827Z,94144.91
2022-12-01T17:44:30.440Z,94149.34
2022-12-01T17:46:57.238Z,94152.19
2022-12-01T17:49:23.902Z,94155.72
2022-12-01T17:51:50.646Z,94152.06
2022-12-01T17:54:17.301Z,94152.03
2022-12-01T17:56:43.957Z,94158.03
2022-12-01T17:59:10.725Z,94153.00
2022-12-01T18:01:37.642Z,94154.63
2022-12-01T18:04:04.539Z,94154.34
2022-12-01T18:06:31.428Z,94160.28
2022-12-01T18:09:00.656Z,94159.53
2022-12-01T18:11:27.974Z,94155.19
2022-12-01T18:13:54.840Z,94162.78
2022-12-01T18:16:27.032Z,94167.94
2022-12-01T18:18:54.765Z,94162.16
2022-12-01T18:21:23.598Z,94166.19
2022-12-01T18:23:52.270Z,94165.81
2022-12-01T18:26:20.489Z,94172.50
2022-12-01T18:28:47.200Z,94166.22
2022-12-01T18:31:15.962Z,94163.53
2022-12-01T18:33:44.017Z,94160.28
2022-12-01T18:36:38.562Z,94170.59
2022-12-01T18:39:07.724Z,94162.22
2022-12-01T18:41:35.496Z,94156.63
2022-12-01T18:44:02.769Z,94157.03
2022-12-01T18:46:29.609Z,94158.69
2022-12-01T18:49:04.705Z,94154.31
2022-12-01T18:51:33.604Z,94151.72
2022-12-01T18:54:01.588Z,94152.84
2022-12-01T18:56:29.424Z,94159.38
2022-12-01T18:58:58.025Z,94152.84
2022-12-01T19:01:27.447Z,94146.81
2022-12-01T19:03:55.541Z,94142.19
2022-12-01T19:06:23.407Z,94153.56
2022-12-01T19:08:52.041Z,94147.81
2022-12-01T19:11:18.832Z,94144.16
2022-12-01T19:13:46.183Z,94147.03
2022-12-01T19:16:15.459Z,94146.06
2022-12-01T19:18:42.870Z,94138.75
2022-12-01T19:21:12.559Z,94138.28
2022-12-01T19:23:40.224Z,94144.00
2022-12-01T19:26:10.112Z,94139.75
2022-12-01T19:28:37.450Z,94144.19
2022-12-01T19:31:08.931Z,94139.31
2022-12-01T19:33:35.706Z,94135.94
2022-12-01T19:36:13.729Z,94141.59
2022-12-01T19:38:40.720Z,94140.09
2022-12-01T19:41:08.977Z,94139.66
2022-12-01T19:43:36.460Z,94139.75
2022-12-01T19:46:12.555Z,94134.59
2022-12-01T19:48:39.588Z,94139.59
2022-12-01T19:51:07.030Z,94146.47
2022-12-01T19:53:34.272Z,94135.97
2022-12-01T19:56:05.092Z,94140.59
2022-12-01T19:58:35.285Z,94149.44
2022-12-01T20:01:07.165Z,94151.34
2022-12-01T20:03:35.832Z,94149.69
2022-12-01T20:06:04.618Z,94153.56
2022-12-01T20:08:35.567Z,94151.63
2022-12-01T20:11:06.262Z,94148.13
2022-12-01T20:13:37.894Z,94151.28
2022-12-01T20:16:06.017Z,94152.56
2022-12-01T20:18:33.097Z,94153.38
2022-12-01T20:21:10.741Z,94152.94
2022-12-01T20:23:37.438Z,94160.16
2022-12-01T20:26:06.975Z,94152.75
2022-12-01T20:28:34.218Z,94151.28
2022-12-01T20:31:01.026Z,94157.47
2022-12-01T20:33:28.302Z,94151.72
2022-12-01T20:35:55.045Z,94152.75
2022-12-01T20:38:27.022Z,94154.47
2022-12-01T20:40:54.400Z,94152.91
2022-12-01T20:43:21.109Z,94146.88
2022-12-01T20:45:47.842Z,94147.25
2022-12-01T20:48:14.694Z,94147.94
2022-12-01T20:50:41.361Z,94146.19
2022-12-01T20:53:08.047Z,94153.00
2022-12-01T20:55:36.751Z,94145.03
2022-12-01T20:58:10.300Z,94147.31
2022-12-01T21:00:40.339Z,94152.16
2022-12-01T21:03:07.169Z,94144.84
2022-12-01T21:05:33.918Z,94147.81
2022-12-01T21:08:01.376Z,94147.91
2022-12-01T21:10:28.472Z,94143.16
2022-12-01T21:13:18.261Z,94146.69
2022-12-01T21:16:01.845Z,94141.78
2022-12-01T21:18:41.371Z,94140.47
2022-12-01T21:21:21.249Z,94140.47
2022-12-01T21:23:53.696Z,94138.00
2022-12-01T21:26:20.364Z,94137.03
2022-12-01T21:28:47.096Z,94137.75
2022-12-01T21:31:15.314Z,94134.09
2022-12-01T21:33:42.530Z,94133.75
2022-12-01T21:36:21.764Z,94133.25
2022-12-01T21:38:53.280Z,94124.47
2022-12-01T21:41:28.126Z,94117.56
2022-12-01T21:44:00.241Z,94126.25
2022-12-01T21:46:27.553Z,94113.69
2022-12-01T21:48:54.645Z,94124.25
2022-12-01T21:51:23.204Z,94122.94
2022-12-01T21:53:51.409Z,94123.25
2022-12-01T21:56:24.448Z,94116.78
2022-12-01T21:58:52.395Z,94120.16
2022-12-01T22:01:32.505Z,94117.41
2022-12-01T22:04:02.626Z,94121.75
2022-12-01T22:06:38.070Z,94111.28
2022-12-01T22:09:31.276Z,94116.03
2022-12-01T22:12:08.292Z,94109.34
2022-12-01T22:14:36.100Z,94102.47
2022-12-01T22:17:18.532Z,94104.66
2022-12-01T22:19:49.689Z,94098.19
2022-12-01T22:22:23.676Z,94105.44
2022-12-01T22:24:59.486Z,94097.84
2022-12-01T22:27:39.414Z,94100.19
2022-12-01T22:30:05.991Z,94110.63
2022-12-01T22:32:57.116Z,94116.59
2022-12-01T22:35:28.422Z,94111.59
2022-12-01T22:38:15.177Z,94111.50
2022-12-01T22:41:03.403Z,94112.88
2022-12-01T22:43:39.149Z,94116.47
2022-12-01T22:46:25.869Z,94117.97
2022-12-01T22:49:13.564Z,94113.63
2022-12-01T22:51:47.929Z,94114.41
2022-12-01T22:54:14.505Z,94114.53
2022-12-01T22:57:05.394Z,94114.53
2022-12-01T22:59:36.632Z,94113.78
2022-12-01T23:02:25.166Z,94112.97
2022-12-01T23:05:07.552Z,94111.13
2022-12-01T23:07:36.954Z,94102.22
2022-12-01T23:10:17.652Z,94103.94
2022-12-01T23:12:46.183Z,94110.47
2022-12-01T23:15:32.160Z,94106.31
2022-12-01T23:18:22.136Z,94100.72
2022-12-01T23:20:51.842Z,94093.38
2022-12-01T23:23:21.369Z,94096.72
2022-12-01T23:25:50.492Z,94094.28
2022-12-01T23:28:18.408Z,94091.50
2022-12-01T23:30:47.681Z,94099.22
2022-12-01T23:33:28.715Z,94088.44
2022-12-01T23:36:05.521Z,94092.16
2022-12-01T23:38:38.680Z,94090.78
2022-12-01T23:41:08.309Z,94089.22
2022-12-01T23:43:42.694Z,94089.97
2022-12-01T23:46:18.925Z,94089.41
2022-12-01T23:48:49.235Z,94084.84
2022-12-01T23:51:18.396Z,94076.16
2022-12-01T23:53:46.681Z,94074.84
2022-12-01T23:56:19.734Z,94078.50
2022-12-01T23:58:46.529Z,94070.19
